Pagrindinis puslapis
METAR-TAF:

METAR-TAF

Oro uostai :

Anchelesas, Filipinai

platuma: 15-11N, ilguma: 120-33E, Aukštis: 148 m

Dabartinis oras

Ataskaita buvo paskelbta 21 minutes, ne 19:00 UTC
Vėjas 8 kt iš Šiaurės/Šiaurės Vakarų
Temperatūra 24°C
Drėgmė 74%
Slėgis 1012 hPa
Matomumas: 9000 m
Mažai debesys ne aukštis 2000 ft
Išsisklaidę debesys ne aukštis 30000 ft

METAR: RPLC 251900Z 34008KT 9000 FEW020 SCT300 24/19 Q1012 NOSIG RMK A2988

Laikas: 03:21 (19:21 UTC)

Prognozė

Ataskaita buvo paskelbta 2 valandos ir 21 minutes, ne 17:00 UTC
Prognozė galioja nuo 25 metu 18 UTC su 26 metu 24 UTC
Vėjas 6 kt iš Šiaurės
Matomumas 10 km arba daugiau
Mažai debesys ne aukštis 2000 ft
Išsisklaidę debesys ne aukštis 30000 ft
Laikinai
nuo 25 metu 18 UTC su 25 metu 24 UTC
Vėjas 5 kt iš Šiaurės/Šiaurės Vakarų
Išsisklaidę debesys ne aukštis 2000 ft
Su prošvaistėmis ne aukštis 30000 ft

TAF: RPLC 251700Z 2518/2624 36006KT 9999 FEW020 SCT300 TX33/2606Z TN24/2521Z TEMPO 2518/2524 34005KT SCT020 BKN300

Orai ataskaitas ir orų prognozės (METAR, TAF).

turimą stotys yra geltonos ir raudonos taškus žemėlapyje.

Perkelti pele per norėdami pamatyti stoties vardą.

Tada spustelėkite, norėdami matyti oro stebėjimo ir prognozės.

Norėdami pakeisti žemėlapį: spustelėkite ant žalios mygtukų su juodo kryžiaus žemyn,; žalią mygtuką su brūkšneliu, jei norite nutolinti; arba žalių rodyklių gretimoms žemėlapius.


METAR-TAF: